createdAt,value
2023-04-10T00:00:03.819Z,19.55
2023-04-10T00:02:31.806Z,21.58
2023-04-10T00:04:59.872Z,20.77
2023-04-10T00:07:27.492Z,20.13
2023-04-10T00:09:54.536Z,19.55
2023-04-10T00:12:21.351Z,20.75
2023-04-10T00:14:48.117Z,20.55
2023-04-10T00:17:14.946Z,19.85
2023-04-10T00:19:41.919Z,22.23
2023-04-10T00:22:08.737Z,18.42
2023-04-10T00:24:35.674Z,20.88
2023-04-10T00:27:02.707Z,19.73
2023-04-10T00:29:29.499Z,21.10
2023-04-10T00:31:56.331Z,20.30
2023-04-10T00:34:23.714Z,19.15
2023-04-10T00:36:51.059Z,20.42
2023-04-10T00:39:17.783Z,18.92
2023-04-10T00:41:44.535Z,19.25
2023-04-10T00:44:11.314Z,19.55
2023-04-10T00:46:39.752Z,21.83
2023-04-10T00:49:06.875Z,19.98
2023-04-10T00:51:33.844Z,22.92
2023-04-10T00:54:02.446Z,22.92
2023-04-10T00:56:33.482Z,22.17
2023-04-10T00:59:00.429Z,21.65
2023-04-10T01:01:27.184Z,22.70
2023-04-10T01:03:54.938Z,20.65
2023-04-10T01:06:36.768Z,21.65
2023-04-10T01:09:34.878Z,19.92
2023-04-10T01:12:09.636Z,23.38
2023-04-10T01:14:49.119Z,19.17
2023-04-10T01:17:59.008Z,20.40
2023-04-10T01:20:30.985Z,22.17
2023-04-10T01:23:06.794Z,20.95
2023-04-10T01:25:53.656Z,25.05
2023-04-10T01:28:23.286Z,24.50
2023-04-10T01:30:54.079Z,21.85
2023-04-10T01:33:26.327Z,21.50
2023-04-10T01:35:58.238Z,23.27
2023-04-10T01:38:28.098Z,22.13
2023-04-10T01:40:55.983Z,23.58
2023-04-10T01:43:26.089Z,19.80
2023-04-10T01:45:54.185Z,21.70
2023-04-10T01:48:21.706Z,21.40
2023-04-10T01:50:50.396Z,20.75
2023-04-10T01:53:18.482Z,21.08
2023-04-10T01:55:45.698Z,23.13
2023-04-10T01:58:13.103Z,21.70
2023-04-10T02:00:41.758Z,20.30
2023-04-10T02:03:09.858Z,20.13
2023-04-10T02:06:03.965Z,23.35
2023-04-10T02:08:31.048Z,23.92
2023-04-10T02:11:08.615Z,19.45
2023-04-10T02:13:37.132Z,18.80
2023-04-10T02:16:08.865Z,18.88
2023-04-10T02:18:38.434Z,20.98
2023-04-10T02:21:05.970Z,23.52
2023-04-10T02:23:32.920Z,20.63
2023-04-10T02:26:06.662Z,19.20
2023-04-10T02:28:33.466Z,18.70
2023-04-10T02:31:00.619Z,21.65
2023-04-10T02:33:27.421Z,21.58
2023-04-10T02:35:54.456Z,21.70
2023-04-10T02:38:21.355Z,19.02
2023-04-10T02:40:50.241Z,18.95
2023-04-10T02:43:17.423Z,20.13
2023-04-10T02:45:44.481Z,21.45
2023-04-10T02:48:11.230Z,22.88
2023-04-10T02:50:38.388Z,24.55
2023-04-10T02:53:05.357Z,25.02
2023-04-10T02:55:32.346Z,25.83
2023-04-10T02:57:59.472Z,24.35
2023-04-10T03:00:26.679Z,22.95
2023-04-10T03:02:53.860Z,18.63
2023-04-10T03:05:20.942Z,16.13
2023-04-10T03:07:47.809Z,17.48
2023-04-10T03:10:14.606Z,19.60
2023-04-10T03:12:41.344Z,20.58
2023-04-10T03:15:08.822Z,22.25
2023-04-10T03:17:35.787Z,22.13
2023-04-10T03:20:02.580Z,22.52
2023-04-10T03:22:32.193Z,21.35
2023-04-10T03:24:59.044Z,23.77
2023-04-10T03:27:26.051Z,25.23
2023-04-10T03:29:52.881Z,19.48
2023-04-10T03:32:19.599Z,18.90
2023-04-10T03:34:46.333Z,18.08
2023-04-10T03:37:13.069Z,20.58
2023-04-10T03:39:40.118Z,17.05
2023-04-10T03:42:06.882Z,15.77
2023-04-10T03:44:35.733Z,17.35
2023-04-10T03:47:02.509Z,18.75
2023-04-10T03:49:29.392Z,18.15
2023-04-10T03:51:56.381Z,19.20
2023-04-10T03:54:23.547Z,17.23
2023-04-10T03:56:50.504Z,15.93
2023-04-10T03:59:17.241Z,19.52
2023-04-10T04:01:44.185Z,18.80
2023-04-10T04:04:11.209Z,21.35
2023-04-10T04:06:38.263Z,24.90
2023-04-10T04:09:05.012Z,20.15
2023-04-10T04:11:31.769Z,18.05
2023-04-10T04:13:58.707Z,18.75
2023-04-10T04:16:25.518Z,21.40
2023-04-10T04:18:52.286Z,19.52
2023-04-10T04:21:19.017Z,20.10
2023-04-10T04:23:45.774Z,16.95
2023-04-10T04:26:12.506Z,22.27
2023-04-10T04:28:39.489Z,21.38
2023-04-10T04:31:06.511Z,18.92
2023-04-10T04:33:33.296Z,18.17
2023-04-10T04:36:00.727Z,20.80
2023-04-10T04:38:27.609Z,19.90
2023-04-10T04:40:54.436Z,19.13
2023-04-10T04:43:21.184Z,22.02
2023-04-10T04:45:48.339Z,17.67
2023-04-10T04:48:15.243Z,18.83
2023-04-10T04:50:42.061Z,20.08
2023-04-10T04:53:09.557Z,18.80
2023-04-10T04:55:36.796Z,17.67
2023-04-10T04:58:04.086Z,21.58
2023-04-10T05:00:31.089Z,18.63
2023-04-10T05:02:57.895Z,18.88
2023-04-10T05:05:24.812Z,19.67
2023-04-10T05:07:52.315Z,20.83
2023-04-10T05:10:19.158Z,18.58
2023-04-10T05:12:45.893Z,20.00
2023-04-10T05:15:13.216Z,21.75
2023-04-10T05:17:40.235Z,31.33
2023-04-10T05:20:08.163Z,45.60
2023-04-10T05:22:35.428Z,42.38
2023-04-10T05:25:02.254Z,22.27
2023-04-10T05:27:29.419Z,21.95
2023-04-10T05:29:56.147Z,24.65
2023-04-10T05:32:23.190Z,22.75
2023-04-10T05:34:50.099Z,19.95
2023-04-10T05:37:16.888Z,19.23
2023-04-10T05:39:43.735Z,20.08
2023-04-10T05:42:10.836Z,24.90
2023-04-10T05:44:37.606Z,26.00
2023-04-10T05:47:04.370Z,30.23
2023-04-10T05:49:31.576Z,24.92
2023-04-10T05:51:58.362Z,23.05
2023-04-10T05:54:25.136Z,23.40
2023-04-10T05:56:52.276Z,23.13
2023-04-10T05:59:19.026Z,20.52
2023-04-10T06:01:47.282Z,22.63
2023-04-10T06:04:14.395Z,24.35
2023-04-10T06:06:41.417Z,25.48
2023-04-10T06:09:08.603Z,24.90
2023-04-10T06:11:35.499Z,26.80
2023-04-10T06:14:02.437Z,22.33
2023-04-10T06:16:29.469Z,24.52
2023-04-10T06:18:56.454Z,25.02
2023-04-10T06:21:23.269Z,25.35
2023-04-10T06:23:50.730Z,26.35
2023-04-10T06:26:17.503Z,23.95
2023-04-10T06:28:44.990Z,28.30
2023-04-10T06:31:12.725Z,27.75
2023-04-10T06:33:39.810Z,26.15
2023-04-10T06:36:06.968Z,24.42
2023-04-10T06:38:37.582Z,23.90
2023-04-10T06:41:06.230Z,27.40
2023-04-10T06:43:38.809Z,27.70
2023-04-10T06:46:06.098Z,24.75
2023-04-10T06:48:33.592Z,26.42
2023-04-10T06:51:10.195Z,24.95
2023-04-10T06:53:37.144Z,24.60
2023-04-10T06:56:04.208Z,27.15
2023-04-10T06:58:31.689Z,25.25
2023-04-10T07:00:58.982Z,27.95
2023-04-10T07:03:26.317Z,23.70
2023-04-10T07:05:53.127Z,23.73
2023-04-10T07:08:19.864Z,23.95
2023-04-10T07:10:46.676Z,24.30
2023-04-10T07:13:13.401Z,24.40
2023-04-10T07:15:40.236Z,25.90
2023-04-10T07:18:07.571Z,27.42
2023-04-10T07:20:34.365Z,23.50
2023-04-10T07:23:01.322Z,24.00
2023-04-10T07:25:28.230Z,25.10
2023-04-10T07:27:55.211Z,24.40
2023-04-10T07:30:21.993Z,23.58
2023-04-10T07:32:49.032Z,25.70
2023-04-10T07:35:15.918Z,22.13
2023-04-10T07:37:44.118Z,21.50
2023-04-10T07:40:11.431Z,21.65
2023-04-10T07:42:39.221Z,22.23
2023-04-10T07:45:06.567Z,21.27
2023-04-10T07:47:33.455Z,22.90
2023-04-10T07:50:00.317Z,20.40
2023-04-10T07:52:27.084Z,21.83
2023-04-10T07:54:53.906Z,19.80
2023-04-10T07:57:20.734Z,20.75
2023-04-10T07:59:48.227Z,22.35
2023-04-10T08:02:15.611Z,20.30
2023-04-10T08:04:42.828Z,20.95
2023-04-10T08:07:09.756Z,19.38
2023-04-10T08:09:36.571Z,20.55
2023-04-10T08:12:03.437Z,19.35
2023-04-10T08:14:30.285Z,18.92
2023-04-10T08:16:57.749Z,16.67
2023-04-10T08:19:24.556Z,20.40
2023-04-10T08:21:51.723Z,17.33
2023-04-10T08:24:20.124Z,17.58
2023-04-10T08:26:46.898Z,18.02
2023-04-10T08:29:13.803Z,17.90
2023-04-10T08:31:40.608Z,19.27
2023-04-10T08:34:07.724Z,18.23
2023-04-10T08:36:34.725Z,18.58
2023-04-10T08:39:01.494Z,17.25
2023-04-10T08:41:28.443Z,17.20
2023-04-10T08:43:56.655Z,16.40
2023-04-10T08:46:26.193Z,15.68
2023-04-10T08:49:03.522Z,15.68
2023-04-10T08:51:39.727Z,15.55
2023-04-10T08:54:08.334Z,15.95
2023-04-10T08:56:37.656Z,16.85
2023-04-10T08:59:04.705Z,16.70
2023-04-10T09:01:31.697Z,14.77
2023-04-10T09:03:59.473Z,13.55
2023-04-10T09:06:27.252Z,14.90
2023-04-10T09:08:54.098Z,15.25
2023-04-10T09:11:21.381Z,14.38
2023-04-10T09:13:48.144Z,15.68
2023-04-10T09:16:15.153Z,15.25
2023-04-10T09:18:49.383Z,14.15
2023-04-10T09:21:19.448Z,14.10
2023-04-10T09:23:48.324Z,12.73
2023-04-10T09:26:25.300Z,15.27
2023-04-10T09:29:03.330Z,14.38
2023-04-10T09:31:35.046Z,15.90
2023-04-10T09:34:22.708Z,13.95
2023-04-10T09:36:57.861Z,14.45
2023-04-10T09:39:36.136Z,13.55
2023-04-10T09:42:03.236Z,14.45
2023-04-10T09:44:37.448Z,13.10
2023-04-10T09:47:13.643Z,14.80
2023-04-10T09:49:48.624Z,11.68
2023-04-10T09:52:27.130Z,12.48
2023-04-10T09:54:56.284Z,11.90
2023-04-10T09:57:24.981Z,13.88
2023-04-10T09:59:57.265Z,11.85
2023-04-10T10:02:26.157Z,11.63
2023-04-10T10:04:53.542Z,12.57
2023-04-10T10:07:22.216Z,10.43
2023-04-10T10:09:51.607Z,11.15
2023-04-10T10:12:34.061Z,12.18
2023-04-10T10:15:10.090Z,11.20
2023-04-10T10:17:51.050Z,10.27
2023-04-10T10:20:22.050Z,11.23
2023-04-10T10:22:50.270Z,10.45
2023-04-10T10:25:19.887Z,10.98
2023-04-10T10:27:52.382Z,10.65
2023-04-10T10:30:29.682Z,10.50
2023-04-10T10:33:00.437Z,9.10
2023-04-10T10:35:29.570Z,9.77
2023-04-10T10:37:59.831Z,9.38
2023-04-10T10:40:54.683Z,9.27
2023-04-10T10:43:36.778Z,9.70
2023-04-10T10:46:38.481Z,10.23
2023-04-10T10:49:05.286Z,9.82
2023-04-10T10:51:50.073Z,10.25
2023-04-10T10:54:33.848Z,11.30
2023-04-10T10:57:02.787Z,8.48
2023-04-10T10:59:48.001Z,9.40
2023-04-10T11:02:19.389Z,9.20
2023-04-10T11:04:50.473Z,10.43
2023-04-10T11:07:18.096Z,10.82
2023-04-10T11:09:49.647Z,9.73
2023-04-10T11:12:22.072Z,10.15
2023-04-10T11:14:58.548Z,9.93
2023-04-10T11:17:49.099Z,10.68
2023-04-10T11:20:16.707Z,10.27
2023-04-10T11:23:11.285Z,10.38
2023-04-10T11:25:52.882Z,8.90
2023-04-10T11:28:39.519Z,8.45
2023-04-10T11:31:23.341Z,9.13
2023-04-10T11:33:57.630Z,9.40
2023-04-10T11:36:24.928Z,8.20
2023-04-10T11:39:13.239Z,9.07
2023-04-10T11:41:51.822Z,9.95
2023-04-10T11:44:31.315Z,9.27
2023-04-10T11:46:58.367Z,9.75
2023-04-10T11:49:33.041Z,10.00
2023-04-10T11:52:00.496Z,10.00
2023-04-10T11:54:30.059Z,9.27
2023-04-10T11:57:05.525Z,10.15
2023-04-10T11:59:33.810Z,8.23
2023-04-10T12:02:14.559Z,8.82
2023-04-10T12:04:43.174Z,7.57
2023-04-10T12:07:11.008Z,7.28
2023-04-10T12:09:37.921Z,7.88
2023-04-10T12:12:06.747Z,7.93
2023-04-10T12:14:39.649Z,8.65
2023-04-10T12:17:11.559Z,7.65
2023-04-10T12:19:39.058Z,7.80
2023-04-10T12:22:06.651Z,9.00
2023-04-10T12:24:53.568Z,8.68
2023-04-10T12:27:23.474Z,8.57
2023-04-10T12:29:52.220Z,7.60
2023-04-10T12:32:19.496Z,7.90
2023-04-10T12:34:53.836Z,8.57
2023-04-10T12:37:44.067Z,7.50
2023-04-10T12:40:11.656Z,8.25
2023-04-10T12:42:42.543Z,8.20
2023-04-10T12:45:12.941Z,8.40
2023-04-10T12:47:48.431Z,8.25
2023-04-10T12:50:16.946Z,8.10
2023-04-10T12:52:45.848Z,8.90
2023-04-10T12:55:13.037Z,9.48
2023-04-10T12:57:41.524Z,7.45
2023-04-10T13:00:11.017Z,7.93
2023-04-10T13:02:39.361Z,8.43
2023-04-10T13:05:07.062Z,8.17
2023-04-10T13:07:34.134Z,8.73
2023-04-10T13:10:00.918Z,7.55
2023-04-10T13:12:30.138Z,8.98
2023-04-10T13:14:57.166Z,6.78
2023-04-10T13:17:25.074Z,7.45
2023-04-10T13:19:52.585Z,5.95
2023-04-10T13:22:20.175Z,6.85
2023-04-10T13:24:47.417Z,7.18
2023-04-10T13:27:14.584Z,8.13
2023-04-10T13:29:43.081Z,6.45
2023-04-10T13:34:37.933Z,6.97
2023-04-10T13:37:05.299Z,6.53
2023-04-10T13:39:32.270Z,6.45
2023-04-10T13:41:59.756Z,5.97
2023-04-10T13:44:26.692Z,5.78
2023-04-10T13:46:53.918Z,14.07
2023-04-10T13:49:22.140Z,7.57
2023-04-10T13:51:49.531Z,6.22
2023-04-10T13:54:17.389Z,5.70
2023-04-10T13:56:46.213Z,5.95
2023-04-10T13:59:13.085Z,6.32
2023-04-10T14:01:40.144Z,6.18
2023-04-10T14:04:07.370Z,5.60
2023-04-10T14:06:34.587Z,5.68
2023-04-10T14:09:01.443Z,5.65
2023-04-10T14:11:28.205Z,5.70
2023-04-10T14:13:55.049Z,5.60
2023-04-10T14:16:21.818Z,6.20
2023-04-10T14:18:48.560Z,5.60
2023-04-10T14:21:15.750Z,5.70
2023-04-10T14:23:42.920Z,6.32
2023-04-10T14:26:09.743Z,7.97
2023-04-10T14:28:36.550Z,6.13
2023-04-10T14:31:05.098Z,7.95
2023-04-10T14:33:32.047Z,6.82
2023-04-10T14:35:58.811Z,6.85
2023-04-10T14:38:25.644Z,5.72
2023-04-10T14:40:53.775Z,6.38
2023-04-10T14:43:20.805Z,10.07
2023-04-10T14:45:50.801Z,6.43
2023-04-10T14:48:19.766Z,6.40
2023-04-10T14:50:47.396Z,6.57
2023-04-10T14:53:14.118Z,7.82
2023-04-10T14:55:40.959Z,5.75
2023-04-10T14:58:09.009Z,6.50
2023-04-10T15:00:35.767Z,6.32
2023-04-10T15:03:02.611Z,6.13
2023-04-10T15:05:29.821Z,6.88
2023-04-10T15:07:56.571Z,8.52
2023-04-10T15:10:23.460Z,6.28
2023-04-10T15:12:50.647Z,6.50
2023-04-10T15:15:18.228Z,6.57
2023-04-10T15:17:45.547Z,6.53
2023-04-10T15:20:12.491Z,6.00
2023-04-10T15:22:40.403Z,5.93
2023-04-10T15:25:09.609Z,7.95
2023-04-10T15:27:36.479Z,6.20
2023-04-10T15:30:04.913Z,6.03
2023-04-10T15:32:31.761Z,7.03
2023-04-10T15:34:58.480Z,7.88
2023-04-10T15:37:25.376Z,5.30
2023-04-10T15:39:52.285Z,7.22
2023-04-10T15:42:19.111Z,6.47
2023-04-10T15:44:49.380Z,7.38
2023-04-10T15:47:16.246Z,7.07
2023-04-10T15:49:43.485Z,7.47
2023-04-10T15:52:10.988Z,6.30
2023-04-10T15:54:39.595Z,6.72
2023-04-10T15:57:06.708Z,6.80
2023-04-10T15:59:34.419Z,5.43
2023-04-10T16:02:01.681Z,7.75
2023-04-10T16:04:31.018Z,7.97
2023-04-10T16:06:58.068Z,8.35
2023-04-10T16:09:26.684Z,7.13
2023-04-10T16:11:55.921Z,7.43
2023-04-10T16:14:22.863Z,7.95
2023-04-10T16:16:50.005Z,7.47
2023-04-10T16:19:16.852Z,7.20
2023-04-10T16:21:43.698Z,6.38
2023-04-10T16:24:10.693Z,7.32
2023-04-10T16:26:37.588Z,6.72
2023-04-10T16:29:04.800Z,6.35
2023-04-10T16:31:31.593Z,6.68
2023-04-10T16:33:58.407Z,7.15
2023-04-10T16:36:25.170Z,6.88
2023-04-10T16:38:51.995Z,6.40
2023-04-10T16:41:20.628Z,6.97
2023-04-10T16:43:47.642Z,6.80
2023-04-10T16:46:14.821Z,6.30
2023-04-10T16:48:42.297Z,6.95
2023-04-10T16:51:17.849Z,6.70
2023-04-10T16:53:44.918Z,6.28
2023-04-10T16:56:11.954Z,6.70
2023-04-10T16:58:40.971Z,8.30
2023-04-10T17:01:25.180Z,8.25
2023-04-10T17:03:52.661Z,9.20
2023-04-10T17:06:19.736Z,7.82
2023-04-10T17:08:47.113Z,7.75
2023-04-10T17:11:14.222Z,9.02
2023-04-10T17:13:42.067Z,7.50
2023-04-10T17:16:09.731Z,8.68
2023-04-10T17:18:36.570Z,7.57
2023-04-10T17:21:03.590Z,6.90
2023-04-10T17:23:30.473Z,9.15
2023-04-10T17:25:57.190Z,7.90
2023-04-10T17:28:23.971Z,7.47
2023-04-10T17:30:50.784Z,7.97
2023-04-10T17:33:17.499Z,7.43
2023-04-10T17:35:44.247Z,7.50
2023-04-10T17:38:11.071Z,7.60
2023-04-10T17:40:40.856Z,7.63
2023-04-10T17:43:07.971Z,7.57
2023-04-10T17:45:38.599Z,9.15
2023-04-10T17:48:07.081Z,8.38
2023-04-10T17:50:34.073Z,8.18
2023-04-10T17:53:00.962Z,9.18
2023-04-10T17:55:27.905Z,9.90
2023-04-10T17:57:56.703Z,12.40
2023-04-10T18:00:23.739Z,13.15
2023-04-10T18:02:50.911Z,10.70
2023-04-10T18:05:17.720Z,11.70
2023-04-10T18:07:44.662Z,10.95
2023-04-10T18:10:11.808Z,12.45
2023-04-10T18:12:38.636Z,16.13
2023-04-10T18:15:06.028Z,15.27
2023-04-10T18:17:33.011Z,14.20
2023-04-10T18:20:00.710Z,11.57
2023-04-10T18:22:31.251Z,9.20
2023-04-10T18:24:58.018Z,8.60
2023-04-10T18:27:24.962Z,10.05
2023-04-10T18:29:53.466Z,9.82
2023-04-10T18:32:20.457Z,9.35
2023-04-10T18:34:47.389Z,10.48
2023-04-10T18:37:15.424Z,9.82
2023-04-10T18:39:42.189Z,9.82
2023-04-10T18:42:10.766Z,9.48
2023-04-10T18:44:37.667Z,10.15
2023-04-10T18:47:05.727Z,10.63
2023-04-10T18:49:32.608Z,9.30
2023-04-10T18:52:00.019Z,12.15
2023-04-10T18:54:27.374Z,13.38
2023-04-10T18:56:54.346Z,11.48
2023-04-10T18:59:21.146Z,10.30
2023-04-10T19:01:48.321Z,12.45
2023-04-10T19:04:15.590Z,9.40
2023-04-10T19:06:44.231Z,8.13
2023-04-10T19:09:10.978Z,9.98
2023-04-10T19:11:38.269Z,10.65
2023-04-10T19:14:06.218Z,9.45
2023-04-10T19:19:01.549Z,9.90
2023-04-10T19:21:28.600Z,10.60
2023-04-10T19:23:55.436Z,12.55
2023-04-10T19:26:22.387Z,11.55
2023-04-10T19:28:49.614Z,10.55
2023-04-10T19:31:16.723Z,15.35
2023-04-10T19:33:43.685Z,18.10
2023-04-10T19:36:10.627Z,19.73
2023-04-10T19:38:37.565Z,19.45
2023-04-10T19:41:13.633Z,45.05
2023-04-10T19:43:40.800Z,77.90
2023-04-10T19:46:15.031Z,18.77
2023-04-10T19:48:41.810Z,33.78
2023-04-10T19:51:08.967Z,20.38
2023-04-10T19:53:35.701Z,16.40
2023-04-10T19:56:02.885Z,15.60
2023-04-10T19:58:39.842Z,12.15
2023-04-10T20:01:08.965Z,12.07
2023-04-10T20:03:38.051Z,12.25
2023-04-10T20:06:10.050Z,10.30
2023-04-10T20:08:37.153Z,11.98
2023-04-10T20:11:07.029Z,13.15
2023-04-10T20:13:34.741Z,12.07
2023-04-10T20:16:01.923Z,17.40
2023-04-10T20:18:29.117Z,12.25
2023-04-10T20:20:55.896Z,13.57
2023-04-10T20:23:22.626Z,13.40
2023-04-10T20:25:49.414Z,11.23
2023-04-10T20:28:17.393Z,12.07
2023-04-10T20:30:44.674Z,17.63
2023-04-10T20:33:11.565Z,13.65
2023-04-10T20:35:38.595Z,10.98
2023-04-10T20:38:05.577Z,11.25
2023-04-10T20:40:32.562Z,12.27
2023-04-10T20:42:59.438Z,11.85
2023-04-10T20:45:26.231Z,12.65
2023-04-10T20:47:53.109Z,11.40
2023-04-10T20:50:20.041Z,11.13
2023-04-10T20:52:46.778Z,10.75
2023-04-10T20:55:13.586Z,13.68
2023-04-10T20:57:40.311Z,10.90
2023-04-10T21:00:08.220Z,11.63
2023-04-10T21:02:35.197Z,13.88
2023-04-10T21:05:02.086Z,12.23
2023-04-10T21:07:28.995Z,12.50
2023-04-10T21:09:56.179Z,12.75
2023-04-10T21:12:23.469Z,11.05
2023-04-10T21:14:50.196Z,10.45
2023-04-10T21:17:18.504Z,12.45
2023-04-10T21:19:45.487Z,10.32
2023-04-10T21:22:12.238Z,12.45
2023-04-10T21:24:39.041Z,11.43
2023-04-10T21:27:06.311Z,10.65
2023-04-10T21:29:33.259Z,13.98
2023-04-10T21:32:00.353Z,11.00
2023-04-10T21:34:27.196Z,11.82
2023-04-10T21:36:55.043Z,10.25
2023-04-10T21:39:21.832Z,11.40
2023-04-10T21:41:48.840Z,9.65
2023-04-10T21:44:15.840Z,10.27
2023-04-10T21:46:42.721Z,8.85
2023-04-10T21:49:10.339Z,9.38
2023-04-10T21:51:37.288Z,10.10
2023-04-10T21:54:04.161Z,8.75
2023-04-10T21:56:31.343Z,11.80
2023-04-10T21:58:58.128Z,13.82
2023-04-10T22:01:24.912Z,12.07
2023-04-10T22:03:53.165Z,10.45
2023-04-10T22:06:20.113Z,9.90
2023-04-10T22:08:47.055Z,9.50
2023-04-10T22:11:13.881Z,9.90
2023-04-10T22:13:40.915Z,9.35
2023-04-10T22:16:07.854Z,10.55
2023-04-10T22:18:34.679Z,8.88
2023-04-10T22:21:01.441Z,10.02
2023-04-10T22:23:28.257Z,9.82
2023-04-10T22:25:55.025Z,9.60
2023-04-10T22:28:22.447Z,10.23
2023-04-10T22:30:49.248Z,16.95
2023-04-10T22:33:16.361Z,10.45
2023-04-10T22:35:43.185Z,10.75
2023-04-10T22:38:10.146Z,11.05
2023-04-10T22:40:36.912Z,10.70
2023-04-10T22:43:03.710Z,10.15
2023-04-10T22:45:30.510Z,10.40
2023-04-10T22:47:57.461Z,10.38
2023-04-10T22:50:24.256Z,12.05
2023-04-10T22:52:51.249Z,12.07
2023-04-10T22:55:18.068Z,11.75
2023-04-10T22:57:49.321Z,12.32
2023-04-10T23:00:16.930Z,13.48
2023-04-10T23:02:44.627Z,13.43
2023-04-10T23:05:11.424Z,12.13
2023-04-10T23:07:38.128Z,11.88
2023-04-10T23:10:05.633Z,9.85
2023-04-10T23:12:32.743Z,10.25
2023-04-10T23:14:59.547Z,11.75
2023-04-10T23:17:26.322Z,10.05
2023-04-10T23:19:53.994Z,10.00
2023-04-10T23:22:20.767Z,10.88
2023-04-10T23:24:52.306Z,22.13
2023-04-10T23:27:19.077Z,9.63
2023-04-10T23:29:45.767Z,10.85
2023-04-10T23:32:12.653Z,11.57
2023-04-10T23:34:39.425Z,9.88
2023-04-10T23:37:06.252Z,11.27
2023-04-10T23:39:33.084Z,9.57
2023-04-10T23:42:00.005Z,9.18
2023-04-10T23:44:27.030Z,8.77
2023-04-10T23:46:53.824Z,9.25
2023-04-10T23:49:20.547Z,9.93
2023-04-10T23:51:47.356Z,8.70
2023-04-10T23:54:14.575Z,10.52
2023-04-10T23:56:41.429Z,10.40
2023-04-10T23:59:08.182Z,9.82
